Time;durP1;ratioP1;P1;durP2;ratioP2;P2;SDS_P1;SDS_P2;PMS_P1;PMS_P2;Temp;Humidity;BMP_temperature;BMP_pressure;BME280_temperature;BME280_humidity;BME280_pressure;Samples;Min_cycle;Max_cycle;Signal;HPM_P1;HPM_P2
2022/08/24 00:01:56;;;;;;;4.00;1.83;;;;;;;;;;5076559;28;20209;-79
2022/08/24 00:04:25;;;;;;;5.82;1.90;;;;;;;;;;5076278;28;20198;-79
2022/08/24 00:06:55;;;;;;;2.20;1.90;;;;;;;;;;5076495;28;20650;-79
2022/08/24 00:09:25;;;;;;;4.05;1.70;;;;;;;;;;5075564;28;20222;-79
2022/08/24 00:11:53;;;;;;;3.10;1.70;;;;;;;;;;5075341;28;20206;-78
2022/08/24 00:14:22;;;;;;;2.63;1.60;;;;;;;;;;5076047;28;20225;-79
2022/08/24 00:16:50;;;;;;;3.25;1.75;;;;;;;;;;5076202;28;20202;-78
2022/08/24 00:19:19;;;;;;;2.92;1.70;;;;;;;;;;5075234;28;20226;-79
2022/08/24 00:21:47;;;;;;;4.00;1.75;;;;;;;;;;5075691;28;20667;-79
2022/08/24 00:24:16;;;;;;;2.95;1.58;;;;;;;;;;5075804;28;20259;-79
2022/08/24 00:26:46;;;;;;;3.53;1.65;;;;;;;;;;5075493;28;20237;-79
2022/08/24 00:29:15;;;;;;;4.35;1.58;;;;;;;;;;5075770;28;20230;-79
2022/08/24 00:31:44;;;;;;;3.08;1.70;;;;;;;;;;5075843;28;20248;-79
2022/08/24 00:34:12;;;;;;;5.68;1.88;;;;;;;;;;5075026;28;20218;-79
2022/08/24 00:36:41;;;;;;;7.13;1.80;;;;;;;;;;5075456;28;20663;-79
2022/08/24 00:39:10;;;;;;;2.65;1.80;;;;;;;;;;5075035;28;20227;-79
2022/08/24 00:41:40;;;;;;;3.05;1.60;;;;;;;;;;5075348;28;20206;-79
2022/08/24 00:44:12;;;;;;;3.30;1.70;;;;;;;;;;5075381;28;20202;-79
2022/08/24 00:46:44;;;;;;;3.15;1.85;;;;;;;;;;5074616;28;20183;-78
2022/08/24 00:49:14;;;;;;;4.50;1.90;;;;;;;;;;5075078;28;20233;-79
2022/08/24 00:51:46;;;;;;;3.83;2.15;;;;;;;;;;5075453;28;20190;-78
2022/08/24 00:54:18;;;;;;;2.72;1.92;;;;;;;;;;5075309;28;20274;-79
2022/08/24 00:56:49;;;;;;;3.33;1.80;;;;;;;;;;5075509;28;20210;-78
2022/08/24 00:59:22;;;;;;;2.85;1.65;;;;;;;;;;5075433;28;20644;-78
2022/08/24 01:01:52;;;;;;;2.42;1.75;;;;;;;;;;5075254;28;20248;-78
2022/08/24 01:04:22;;;;;;;4.47;1.90;;;;;;;;;;5075401;28;20282;-79
2022/08/24 01:06:50;;;;;;;3.38;1.67;;;;;;;;;;5075359;28;20194;-78
2022/08/24 01:09:19;;;;;;;3.00;1.73;;;;;;;;;;5074612;28;20280;-79
2022/08/24 01:11:48;;;;;;;2.05;1.63;;;;;;;;;;5075033;28;20217;-79
2022/08/24 01:14:19;;;;;;;2.42;1.80;;;;;;;;;;5074761;28;20230;-79
2022/08/24 01:19:36;;;;;;;3.78;1.98;;;;;;;;;;5074639;28;20223;-79
2022/08/24 01:22:24;;;;;;;2.55;1.80;;;;;;;;;;5074857;28;20189;-79
2022/08/24 01:24:53;;;;;;;3.13;2.00;;;;;;;;;;5074693;28;20252;-78
2022/08/24 01:27:22;;;;;;;2.75;1.88;;;;;;;;;;5075160;28;20202;-79
2022/08/24 01:29:56;;;;;;;2.95;2.00;;;;;;;;;;5074620;28;20711;-79
2022/08/24 01:32:26;;;;;;;2.53;1.80;;;;;;;;;;5074975;28;20690;-79
2022/08/24 01:34:55;;;;;;;1.83;1.73;;;;;;;;;;5074759;28;20641;-79
2022/08/24 01:37:23;;;;;;;2.25;1.80;;;;;;;;;;5074644;28;20228;-79
2022/08/24 01:39:55;;;;;;;3.00;1.90;;;;;;;;;;5074640;28;20227;-79
2022/08/24 01:42:28;;;;;;;5.03;2.00;;;;;;;;;;5074650;28;20654;-79
2022/08/24 01:44:57;;;;;;;3.22;1.90;;;;;;;;;;5074898;28;20202;-79
2022/08/24 01:47:25;;;;;;;4.40;2.05;;;;;;;;;;5075014;28;20209;-79
2022/08/24 01:49:54;;;;;;;3.58;1.92;;;;;;;;;;5074858;28;20276;-79
2022/08/24 01:52:24;;;;;;;4.15;1.98;;;;;;;;;;5078489;28;20198;-79
2022/08/24 01:54:54;;;;;;;3.25;1.88;;;;;;;;;;5078789;28;20225;-78
2022/08/24 01:57:24;;;;;;;4.22;2.00;;;;;;;;;;5078079;28;20191;-78
2022/08/24 01:59:55;;;;;;;3.53;1.98;;;;;;;;;;5077644;28;20253;-78
2022/08/24 02:02:27;;;;;;;4.75;2.00;;;;;;;;;;5077930;28;20559;-78
2022/08/24 02:04:56;;;;;;;2.83;1.90;;;;;;;;;;5078198;28;20183;-79
2022/08/24 02:07:25;;;;;;;3.42;1.73;;;;;;;;;;5077609;28;20198;-79
2022/08/24 02:09:55;;;;;;;3.95;2.00;;;;;;;;;;5078355;28;20229;-79
2022/08/24 02:12:23;;;;;;;5.05;2.30;;;;;;;;;;5078263;28;20198;-78
2022/08/24 02:14:52;;;;;;;3.78;2.00;;;;;;;;;;5077586;28;20222;-78
2022/08/24 02:17:20;;;;;;;3.70;2.13;;;;;;;;;;5078370;28;20198;-79
2022/08/24 02:19:49;;;;;;;2.38;2.00;;;;;;;;;;5077829;28;20218;-79
2022/08/24 02:22:18;;;;;;;4.60;2.10;;;;;;;;;;5077629;28;20202;-79
2022/08/24 02:24:47;;;;;;;2.78;2.10;;;;;;;;;;5077788;28;20205;-79
2022/08/24 02:27:16;;;;;;;4.70;2.10;;;;;;;;;;5077825;28;20557;-79
2022/08/24 02:29:45;;;;;;;2.10;1.92;;;;;;;;;;5077111;28;20280;-79
2022/08/24 02:32:13;;;;;;;3.67;1.83;;;;;;;;;;5077472;28;20214;-78
2022/08/24 02:34:42;;;;;;;2.58;1.95;;;;;;;;;;5076948;28;20272;-79
2022/08/24 02:37:11;;;;;;;3.03;2.05;;;;;;;;;;5077334;28;20189;-78
2022/08/24 02:39:39;;;;;;;2.53;1.98;;;;;;;;;;5077144;28;20226;-78
2022/08/24 02:42:08;;;;;;;3.28;2.00;;;;;;;;;;5077190;28;20256;-78
2022/08/24 02:44:37;;;;;;;3.83;1.88;;;;;;;;;;5077021;28;20660;-79
2022/08/24 02:47:06;;;;;;;3.40;1.90;;;;;;;;;;5077082;28;20686;-79
2022/08/24 02:49:35;;;;;;;4.13;2.20;;;;;;;;;;5076608;28;20312;-78
2022/08/24 02:52:04;;;;;;;4.50;2.05;;;;;;;;;;5077000;28;20202;-79
2022/08/24 02:54:32;;;;;;;3.58;2.08;;;;;;;;;;5076550;28;20687;-78
2022/08/24 02:57:01;;;;;;;4.10;2.17;;;;;;;;;;5076905;28;20213;-78
2022/08/24 02:59:29;;;;;;;4.43;2.08;;;;;;;;;;5076443;28;20223;-79
2022/08/24 03:01:59;;;;;;;2.83;2.20;;;;;;;;;;5076304;28;20612;-78
2022/08/24 03:04:27;;;;;;;4.53;2.17;;;;;;;;;;5076986;28;20641;-78
2022/08/24 03:06:56;;;;;;;4.43;2.20;;;;;;;;;;5076147;28;20213;-79
2022/08/24 03:09:24;;;;;;;2.13;1.92;;;;;;;;;;5077267;28;20226;-78
2022/08/24 03:11:56;;;;;;;2.58;2.13;;;;;;;;;;5076853;28;20616;-78
2022/08/24 03:14:24;;;;;;;2.40;1.90;;;;;;;;;;5076279;28;20218;-79
2022/08/24 03:16:53;;;;;;;2.25;1.95;;;;;;;;;;5076122;28;20248;-78
2022/08/24 03:19:22;;;;;;;3.10;2.13;;;;;;;;;;5075774;28;20226;-78
2022/08/24 03:21:52;;;;;;;4.50;2.20;;;;;;;;;;5075708;28;20202;-78
2022/08/24 03:24:21;;;;;;;2.40;2.20;;;;;;;;;;5077522;28;20237;-78
2022/08/24 03:26:49;;;;;;;5.35;2.13;;;;;;;;;;5075970;28;20206;-78
2022/08/24 03:29:18;;;;;;;2.95;2.00;;;;;;;;;;5075305;28;20242;-78
2022/08/24 03:31:48;;;;;;;4.13;1.92;;;;;;;;;;5076074;28;20210;-78
2022/08/24 03:34:18;;;;;;;2.80;2.05;;;;;;;;;;5076402;28;20226;-78
2022/08/24 03:36:48;;;;;;;3.22;2.10;;;;;;;;;;5076153;28;20542;-78
2022/08/24 03:39:17;;;;;;;2.58;2.28;;;;;;;;;;5075766;28;20218;-78
2022/08/24 03:41:46;;;;;;;2.15;1.98;;;;;;;;;;5075835;28;20256;-78
2022/08/24 03:44:14;;;;;;;3.03;2.17;;;;;;;;;;5075278;28;20206;-78
2022/08/24 03:46:46;;;;;;;4.87;2.00;;;;;;;;;;5075752;28;20187;-78
2022/08/24 03:49:14;;;;;;;2.85;2.10;;;;;;;;;;5075392;28;20222;-79
2022/08/24 03:51:43;;;;;;;3.17;2.20;;;;;;;;;;5075688;28;20256;-78
2022/08/24 03:54:13;;;;;;;3.35;2.22;;;;;;;;;;5075417;28;20236;-78
2022/08/24 03:56:42;;;;;;;2.17;1.98;;;;;;;;;;5075656;28;20190;-78
2022/08/24 03:59:11;;;;;;;5.60;2.20;;;;;;;;;;5074816;28;20233;-78
2022/08/24 04:01:39;;;;;;;3.95;2.30;;;;;;;;;;5075081;28;20207;-78
2022/08/24 04:04:08;;;;;;;4.37;2.60;;;;;;;;;;5074902;28;20669;-78
2022/08/24 04:06:36;;;;;;;4.68;2.40;;;;;;;;;;5074809;28;20202;-78
2022/08/24 04:09:06;;;;;;;4.67;2.60;;;;;;;;;;5075072;28;20230;-78
2022/08/24 04:11:36;;;;;;;3.77;2.40;;;;;;;;;;5074734;28;20272;-78
2022/08/24 04:14:08;;;;;;;2.65;2.38;;;;;;;;;;5074264;28;20213;-78
2022/08/24 04:16:54;;;;;;;4.63;2.43;;;;;;;;;;5074680;28;20247;-78
2022/08/24 04:19:25;;;;;;;4.27;2.50;;;;;;;;;;5074743;28;20222;-78
2022/08/24 04:21:56;;;;;;;2.67;2.30;;;;;;;;;;5074592;28;20232;-77
2022/08/24 04:24:24;;;;;;;3.40;2.50;;;;;;;;;;5075053;28;20202;-78
2022/08/24 04:26:54;;;;;;;4.77;2.33;;;;;;;;;;5074848;28;20207;-77
2022/08/24 04:29:22;;;;;;;3.83;2.73;;;;;;;;;;5074703;28;20656;-78
2022/08/24 04:31:51;;;;;;;5.93;2.60;;;;;;;;;;5074966;28;20198;-78
2022/08/24 04:34:21;;;;;;;4.63;2.73;;;;;;;;;;5075606;28;20198;-78
2022/08/24 04:36:49;;;;;;;6.47;2.80;;;;;;;;;;5075012;28;20213;-78
2022/08/24 04:39:17;;;;;;;3.63;2.47;;;;;;;;;;5074934;28;20222;-78
2022/08/24 04:41:46;;;;;;;7.00;2.73;;;;;;;;;;5074590;28;20198;-78
2022/08/24 04:44:19;;;;;;;3.60;2.87;;;;;;;;;;5074831;28;20226;-78
2022/08/24 04:46:47;;;;;;;7.73;2.90;;;;;;;;;;5075143;28;20248;-78
2022/08/24 04:49:15;;;;;;;3.37;2.40;;;;;;;;;;5075278;28;20225;-79
2022/08/24 04:51:44;;;;;;;4.03;2.70;;;;;;;;;;5074949;28;20209;-78
2022/08/24 04:54:13;;;;;;;3.53;2.70;;;;;;;;;;5075272;28;20199;-79
2022/08/24 04:56:41;;;;;;;5.23;2.90;;;;;;;;;;5074545;28;20279;-78
2022/08/24 04:59:09;;;;;;;3.90;2.90;;;;;;;;;;5075175;28;20222;-78
2022/08/24 05:01:43;;;;;;;4.07;2.80;;;;;;;;;;5074774;28;20205;-78
2022/08/24 05:04:12;;;;;;;6.67;2.77;;;;;;;;;;5074126;28;20278;-79
2022/08/24 05:06:41;;;;;;;4.37;2.77;;;;;;;;;;5074470;28;20194;-78
2022/08/24 05:09:11;;;;;;;4.27;3.10;;;;;;;;;;5074163;28;20561;-78
2022/08/24 05:11:40;;;;;;;8.27;3.13;;;;;;;;;;5074171;28;20202;-78
2022/08/24 05:14:16;;;;;;;3.80;2.90;;;;;;;;;;5074153;28;20195;-78
2022/08/24 05:16:46;;;;;;;8.67;3.23;;;;;;;;;;5074087;28;20218;-78
2022/08/24 05:19:21;;;;;;;3.53;2.50;;;;;;;;;;5074145;28;20214;-78
2022/08/24 05:21:50;;;;;;;3.90;3.07;;;;;;;;;;5074386;28;20202;-78
2022/08/24 05:24:19;;;;;;;6.00;3.07;;;;;;;;;;5074984;28;20208;-77
2022/08/24 05:26:48;;;;;;;4.47;2.77;;;;;;;;;;5077634;28;20203;-78
2022/08/24 05:29:17;;;;;;;3.13;2.70;;;;;;;;;;5077548;28;20230;-78
2022/08/24 05:31:47;;;;;;;6.73;3.00;;;;;;;;;;5078053;28;20564;-78
2022/08/24 05:34:16;;;;;;;7.43;3.00;;;;;;;;;;5078173;28;20206;-78
2022/08/24 05:36:45;;;;;;;4.60;2.40;;;;;;;;;;5077918;28;20591;-78
2022/08/24 05:39:15;;;;;;;7.53;2.87;;;;;;;;;;5078293;28;20226;-78
2022/08/24 05:41:44;;;;;;;3.03;2.60;;;;;;;;;;5077674;28;20636;-78
2022/08/24 05:44:13;;;;;;;3.83;3.00;;;;;;;;;;5077469;28;20206;-78
2022/08/24 05:46:41;;;;;;;4.50;2.78;;;;;;;;;;5077475;28;20201;-78
2022/08/24 05:49:12;;;;;;;3.58;2.55;;;;;;;;;;5077073;28;20313;-78
2022/08/24 05:51:41;;;;;;;5.17;2.53;;;;;;;;;;5078000;28;20619;-78
2022/08/24 05:54:12;;;;;;;2.88;2.53;;;;;;;;;;5077162;28;20206;-78
2022/08/24 05:56:40;;;;;;;4.47;2.50;;;;;;;;;;5077915;28;20546;-78
2022/08/24 05:59:09;;;;;;;3.35;2.80;;;;;;;;;;5077086;28;20229;-77
2022/08/24 06:01:38;;;;;;;3.75;2.50;;;;;;;;;;5077432;28;20206;-78
2022/08/24 06:04:13;;;;;;;3.20;2.42;;;;;;;;;;5077340;28;20289;-79
2022/08/24 06:06:42;;;;;;;4.80;2.28;;;;;;;;;;5077504;28;20206;-78
2022/08/24 06:09:15;;;;;;;3.70;2.58;;;;;;;;;;5077599;28;20832;-78
2022/08/24 06:11:45;;;;;;;6.30;2.78;;;;;;;;;;5077453;28;20575;-78
2022/08/24 06:14:15;;;;;;;4.13;2.78;;;;;;;;;;5077552;28;20558;-78
2022/08/24 06:16:44;;;;;;;4.57;2.53;;;;;;;;;;5077365;28;20226;-78
2022/08/24 06:19:16;;;;;;;3.65;2.15;;;;;;;;;;5077312;28;20254;-78
2022/08/24 06:21:45;;;;;;;4.32;2.42;;;;;;;;;;5076914;28;20182;-78
2022/08/24 06:24:15;;;;;;;4.00;2.50;;;;;;;;;;5076991;28;20663;-78
2022/08/24 06:29:29;;;;;;;3.08;2.30;;;;;;;;;;5077228;28;20237;-78
2022/08/24 06:31:58;;;;;;;4.60;2.80;;;;;;;;;;5077147;28;20199;-78
2022/08/24 06:34:29;;;;;;;2.38;2.17;;;;;;;;;;5076834;28;20209;-78
2022/08/24 06:36:57;;;;;;;3.53;2.50;;;;;;;;;;5075889;28;20207;-78
2022/08/24 06:39:26;;;;;;;4.30;2.60;;;;;;;;;;5076873;28;20215;-78
2022/08/24 06:41:55;;;;;;;4.15;2.42;;;;;;;;;;5076999;28;20229;-79
2022/08/24 06:44:24;;;;;;;6.40;2.55;;;;;;;;;;5076930;28;20635;-79
2022/08/24 06:46:52;;;;;;;4.45;2.42;;;;;;;;;;5076410;28;20245;-79
2022/08/24 06:49:21;;;;;;;4.35;2.40;;;;;;;;;;5076561;28;20254;-78
2022/08/24 06:51:50;;;;;;;4.32;2.47;;;;;;;;;;5076891;28;20206;-78
2022/08/24 06:54:20;;;;;;;3.85;2.40;;;;;;;;;;5076836;28;20248;-79
2022/08/24 06:56:48;;;;;;;5.18;2.30;;;;;;;;;;5076444;28;20218;-79
2022/08/24 06:59:17;;;;;;;4.65;2.42;;;;;;;;;;5076850;28;20229;-78
2022/08/24 07:01:46;;;;;;;2.70;2.47;;;;;;;;;;5076659;28;20218;-79
2022/08/24 07:04:14;;;;;;;3.50;2.00;;;;;;;;;;5076619;28;20578;-79
2022/08/24 07:06:43;;;;;;;3.25;2.30;;;;;;;;;;5076432;28;20225;-79
2022/08/24 07:09:12;;;;;;;4.78;2.42;;;;;;;;;;5075972;28;20214;-78
2022/08/24 07:11:41;;;;;;;4.05;2.55;;;;;;;;;;5076825;28;20230;-79
2022/08/24 07:14:09;;;;;;;5.72;2.35;;;;;;;;;;5076976;28;20207;-78
2022/08/24 07:16:38;;;;;;;2.53;2.17;;;;;;;;;;5076547;28;20218;-79
2022/08/24 07:19:06;;;;;;;4.93;2.33;;;;;;;;;;5076249;28;20219;-79
2022/08/24 07:21:35;;;;;;;4.78;2.28;;;;;;;;;;5076480;28;20225;-79
2022/08/24 07:24:05;;;;;;;3.72;2.20;;;;;;;;;;5076466;28;20206;-79
2022/08/24 07:26:35;;;;;;;2.70;2.10;;;;;;;;;;5076439;28;20660;-79
2022/08/24 07:29:06;;;;;;;5.30;2.15;;;;;;;;;;5076129;28;20619;-79
2022/08/24 07:31:48;;;;;;;5.13;2.30;;;;;;;;;;5075645;28;20202;-78
2022/08/24 07:34:16;;;;;;;3.30;2.35;;;;;;;;;;5076192;28;20651;-79
2022/08/24 07:36:45;;;;;;;3.60;2.65;;;;;;;;;;5076432;28;20214;-79
2022/08/24 07:39:13;;;;;;;4.00;2.20;;;;;;;;;;5076119;28;20264;-79
2022/08/24 07:41:44;;;;;;;5.20;2.53;;;;;;;;;;5076204;28;20210;-79
2022/08/24 07:44:33;;;;;;;7.20;2.50;;;;;;;;;;5075774;28;20267;-79
2022/08/24 07:47:01;;;;;;;5.57;2.40;;;;;;;;;;5075276;28;20206;-79
2022/08/24 07:49:49;;;;;;;4.20;2.10;;;;;;;;;;5075385;28;20227;-79
2022/08/24 07:52:18;;;;;;;6.25;2.45;;;;;;;;;;5075595;28;20206;-79
2022/08/24 07:54:46;;;;;;;5.57;2.30;;;;;;;;;;5075924;28;20206;-79
2022/08/24 07:57:16;;;;;;;3.92;2.20;;;;;;;;;;5075544;28;20219;-78
2022/08/24 07:59:46;;;;;;;4.28;2.20;;;;;;;;;;5075686;28;20237;-79
2022/08/24 08:02:15;;;;;;;4.43;2.13;;;;;;;;;;5076159;28;20209;-79
2022/08/24 08:04:44;;;;;;;4.70;2.17;;;;;;;;;;5075258;28;20614;-77
2022/08/24 08:07:13;;;;;;;5.97;2.38;;;;;;;;;;5075428;28;20204;-79
2022/08/24 08:09:42;;;;;;;4.78;2.17;;;;;;;;;;5075683;28;20222;-79
2022/08/24 08:12:11;;;;;;;4.72;2.20;;;;;;;;;;5075609;28;20268;-78
2022/08/24 08:14:40;;;;;;;4.25;2.22;;;;;;;;;;5075303;28;20205;-80
2022/08/24 08:17:09;;;;;;;4.70;2.20;;;;;;;;;;5075393;28;20214;-79
2022/08/24 08:19:37;;;;;;;3.47;1.90;;;;;;;;;;5075808;28;20593;-79
2022/08/24 08:24:52;;;;;;;5.55;2.15;;;;;;;;;;5075634;28;20187;-79
2022/08/24 08:27:20;;;;;;;1.92;1.80;;;;;;;;;;5075530;28;20195;-79
2022/08/24 08:29:50;;;;;;;2.58;2.00;;;;;;;;;;5075065;28;20283;-79
2022/08/24 08:32:20;;;;;;;2.70;1.90;;;;;;;;;;5076019;28;20191;-79
2022/08/24 08:34:48;;;;;;;2.38;2.00;;;;;;;;;;5075126;28;20202;-79
2022/08/24 08:37:17;;;;;;;4.97;2.20;;;;;;;;;;5075056;28;20222;-79
2022/08/24 08:39:45;;;;;;;2.40;1.80;;;;;;;;;;5075756;28;20226;-79
2022/08/24 08:42:32;;;;;;;3.75;2.20;;;;;;;;;;5075239;28;20271;-78
2022/08/24 08:45:15;;;;;;;2.53;1.90;;;;;;;;;;5075243;28;20632;-80
2022/08/24 08:47:58;;;;;;;2.78;2.00;;;;;;;;;;5075072;28;20206;-80
2022/08/24 08:50:30;;;;;;;2.55;1.65;;;;;;;;;;5066685;28;20654;-79
2022/08/24 08:53:29;;;;;;;4.90;1.73;;;;;;;;;;5075109;28;20871;-79
2022/08/24 08:56:03;;;;;;;3.30;1.75;;;;;;;;;;5032741;28;20315;-79
2022/08/24 08:58:39;;;;;;;3.05;1.85;;;;;;;;;;5050876;28;20225;-79
2022/08/24 09:01:20;;;;;;;3.22;1.90;;;;;;;;;;5059686;28;20217;-78
2022/08/24 09:04:04;;;;;;;6.78;1.85;;;;;;;;;;5059451;28;20296;-80
2022/08/24 09:06:39;;;;;;;3.33;1.80;;;;;;;;;;5060043;28;20191;-80
2022/08/24 09:09:16;;;;;;;2.28;1.90;;;;;;;;;;5059676;28;20225;-79
2022/08/24 09:11:51;;;;;;;2.28;1.70;;;;;;;;;;5059361;28;20578;-79
2022/08/24 09:14:41;;;;;;;2.92;1.90;;;;;;;;;;5059646;28;20194;-80
2022/08/24 09:17:19;;;;;;;1.88;1.77;;;;;;;;;;5042258;28;20226;-80
2022/08/24 09:19:55;;;;;;;4.88;1.70;;;;;;;;;;5058953;28;20229;-78
2022/08/24 09:22:24;;;;;;;1.90;1.80;;;;;;;;;;5058746;28;20217;-79
2022/08/24 09:25:00;;;;;;;2.60;1.85;;;;;;;;;;5058543;28;20229;-77
2022/08/24 09:27:36;;;;;;;2.10;1.90;;;;;;;;;;5058626;28;20183;-78
2022/08/24 09:30:08;;;;;;;4.75;2.00;;;;;;;;;;5057919;28;20313;-77
2022/08/24 09:32:48;;;;;;;2.78;1.70;;;;;;;;;;5058146;28;20187;-77
2022/08/24 09:35:20;;;;;;;2.75;1.70;;;;;;;;;;5058046;28;20187;-77
2022/08/24 09:37:59;;;;;;;2.53;1.67;;;;;;;;;;5057945;28;20697;-78
2022/08/24 09:40:36;;;;;;;2.22;1.50;;;;;;;;;;5075955;28;20226;-78
2022/08/24 09:43:27;;;;;;;3.67;1.80;;;;;;;;;;5077756;28;20186;-78
2022/08/24 09:46:07;;;;;;;2.00;1.80;;;;;;;;;;5061794;28;20681;-78
2022/08/24 09:48:53;;;;;;;2.00;1.80;;;;;;;;;;5077546;28;20210;-78
2022/08/24 09:51:42;;;;;;;4.50;2.00;;;;;;;;;;5058216;28;20190;-78
2022/08/24 09:54:45;;;;;;;3.53;1.90;;;;;;;;;;5055109;28;20203;-78
2022/08/24 09:57:28;;;;;;;4.22;1.65;;;;;;;;;;5057331;28;20191;-78
2022/08/24 10:00:19;;;;;;;1.90;1.70;;;;;;;;;;5057305;28;20218;-78
2022/08/24 10:02:52;;;;;;;3.00;1.80;;;;;;;;;;5057224;28;20191;-78
2022/08/24 10:05:25;;;;;;;2.25;1.70;;;;;;;;;;5057641;28;20640;-78
2022/08/24 10:07:57;;;;;;;4.13;2.00;;;;;;;;;;5057793;28;20521;-78
2022/08/24 10:10:29;;;;;;;2.85;1.63;;;;;;;;;;5056521;28;20239;-78
2022/08/24 10:13:09;;;;;;;3.85;1.75;;;;;;;;;;5057602;28;20199;-78
2022/08/24 10:15:39;;;;;;;2.00;1.70;;;;;;;;;;5075312;28;20209;-79
2022/08/24 10:18:12;;;;;;;4.07;1.73;;;;;;;;;;5077836;28;20202;-79
2022/08/24 10:20:47;;;;;;;2.75;1.60;;;;;;;;;;5077832;28;20250;-78
2022/08/24 10:23:29;;;;;;;2.63;1.90;;;;;;;;;;5077208;28;20201;-78
2022/08/24 10:26:02;;;;;;;2.33;1.70;;;;;;;;;;5077257;28;20190;-78
2022/08/24 10:28:48;;;;;;;4.10;1.75;;;;;;;;;;5077538;28;20566;-78
2022/08/24 10:31:19;;;;;;;2.30;1.83;;;;;;;;;;5077542;28;20191;-79
2022/08/24 10:33:56;;;;;;;3.25;1.85;;;;;;;;;;5076762;28;20683;-78
2022/08/24 10:36:34;;;;;;;2.15;1.58;;;;;;;;;;5077197;28;20609;-79
2022/08/24 10:43:32;;;;;;;2.45;1.80;;;;;;;;;;5077242;28;20284;-78
2022/08/24 10:45:30;;;;;;;4.18;2.00;;;;;;;;;;5076835;28;20209;-78
2022/08/24 10:48:12;;;;;;;3.42;1.95;;;;;;;;;;5076957;28;20199;-79
2022/08/24 10:50:47;;;;;;;1.98;1.70;;;;;;;;;;5077039;28;20230;-79
2022/08/24 10:53:19;;;;;;;2.05;1.85;;;;;;;;;;5077286;28;20232;-80
2022/08/24 10:55:52;;;;;;;3.58;1.85;;;;;;;;;;5076832;28;20210;-79
2022/08/24 10:58:33;;;;;;;6.00;2.00;;;;;;;;;;5076879;28;20237;-80
2022/08/24 11:01:16;;;;;;;4.20;1.90;;;;;;;;;;5076676;28;20186;-80
2022/08/24 11:03:53;;;;;;;2.58;1.98;;;;;;;;;;5077452;28;20636;-81
2022/08/24 11:06:22;;;;;;;3.20;1.75;;;;;;;;;;5076888;28;20238;-81
2022/08/24 11:08:53;;;;;;;3.40;1.75;;;;;;;;;;5077691;28;20313;-80
2022/08/24 11:11:26;;;;;;;4.00;1.80;;;;;;;;;;5077720;28;20612;-80
2022/08/24 11:13:57;;;;;;;2.42;1.80;;;;;;;;;;5076621;28;20197;-80
2022/08/24 11:16:30;;;;;;;2.83;1.95;;;;;;;;;;5077418;28;20191;-80
2022/08/24 11:18:59;;;;;;;3.35;2.00;;;;;;;;;;5076740;28;20230;-80
2022/08/24 11:21:45;;;;;;;3.25;2.17;;;;;;;;;;5076776;28;20675;-79
2022/08/24 11:24:25;;;;;;;3.83;1.88;;;;;;;;;;5070412;28;20257;-80
2022/08/24 11:26:55;;;;;;;3.45;1.98;;;;;;;;;;5074881;28;20607;-79
2022/08/24 11:29:29;;;;;;;5.68;1.98;;;;;;;;;;5076463;28;20253;-79
2022/08/24 11:31:59;;;;;;;2.50;1.92;;;;;;;;;;5076422;28;20198;-79
2022/08/24 11:34:32;;;;;;;2.92;1.88;;;;;;;;;;5076676;28;20179;-79
2022/08/24 11:37:01;;;;;;;3.97;2.00;;;;;;;;;;5076541;28;20213;-80
2022/08/24 11:39:33;;;;;;;2.85;1.67;;;;;;;;;;5075940;28;20237;-80
2022/08/24 11:42:04;;;;;;;2.50;2.05;;;;;;;;;;5076557;28;20614;-80
2022/08/24 11:44:43;;;;;;;2.92;1.80;;;;;;;;;;5076146;28;20186;-80
2022/08/24 11:47:19;;;;;;;1.90;1.70;;;;;;;;;;5076471;28;20206;-80
2022/08/24 11:49:53;;;;;;;3.33;2.10;;;;;;;;;;5076059;28;20222;-80
2022/08/24 11:52:26;;;;;;;2.47;2.17;;;;;;;;;;5076676;28;20558;-80
2022/08/24 11:54:59;;;;;;;3.83;2.10;;;;;;;;;;5075847;28;20187;-80
2022/08/24 11:57:30;;;;;;;4.57;1.90;;;;;;;;;;5075845;28;20194;-78
2022/08/24 12:00:04;;;;;;;3.30;2.20;;;;;;;;;;5074392;28;20267;-79
2022/08/24 12:02:37;;;;;;;3.28;2.03;;;;;;;;;;5074039;28;20206;-78
2022/08/24 12:05:08;;;;;;;4.43;2.00;;;;;;;;;;5075706;28;20225;-79
2022/08/24 12:07:43;;;;;;;2.85;2.10;;;;;;;;;;5095096;28;20205;-80
2022/08/24 12:10:21;;;;;;;2.53;1.95;;;;;;;;;;5094816;28;20255;-80
2022/08/24 12:12:53;;;;;;;3.85;2.20;;;;;;;;;;5094987;28;20239;-79
2022/08/24 12:15:27;;;;;;;4.88;1.80;;;;;;;;;;5095318;28;20186;-80
2022/08/24 12:18:00;;;;;;;4.05;2.05;;;;;;;;;;5095855;28;20238;-79
2022/08/24 12:20:32;;;;;;;4.78;2.20;;;;;;;;;;5096188;28;20679;-79
2022/08/24 12:23:03;;;;;;;3.25;1.90;;;;;;;;;;5087915;28;20202;-79
2022/08/24 12:28:22;;;;;;;4.18;2.08;;;;;;;;;;5068829;28;20198;-80
2022/08/24 12:30:51;;;;;;;3.60;1.80;;;;;;;;;;5075745;28;20229;-79
2022/08/24 12:33:24;;;;;;;2.92;1.92;;;;;;;;;;5075484;28;20251;-79
2022/08/24 12:35:54;;;;;;;4.07;2.15;;;;;;;;;;5075129;28;20199;-80
2022/08/24 12:38:26;;;;;;;5.07;2.03;;;;;;;;;;5076448;28;20202;-80
2022/08/24 12:40:56;;;;;;;2.83;2.00;;;;;;;;;;5075751;28;20246;-79
2022/08/24 12:43:30;;;;;;;2.42;1.80;;;;;;;;;;5075500;28;20222;-80
2022/08/24 12:46:00;;;;;;;2.65;2.03;;;;;;;;;;5076003;28;20187;-80
2022/08/24 12:48:31;;;;;;;2.72;2.00;;;;;;;;;;5063594;28;20656;-79
2022/08/24 12:51:05;;;;;;;4.75;2.50;;;;;;;;;;5055810;28;20191;-80
2022/08/24 12:53:50;;;;;;;4.10;2.22;;;;;;;;;;5056288;28;20592;-79
2022/08/24 12:56:37;;;;;;;5.45;2.03;;;;;;;;;;5056160;28;20191;-80
2022/08/24 12:59:08;;;;;;;2.67;1.88;;;;;;;;;;5055327;28;20227;-80
2022/08/24 13:01:40;;;;;;;5.55;2.10;;;;;;;;;;5055721;28;20210;-79
2022/08/24 13:04:16;;;;;;;3.10;2.35;;;;;;;;;;5056098;28;20226;-79
2022/08/24 13:06:47;;;;;;;3.22;2.10;;;;;;;;;;5055001;28;20191;-79
2022/08/24 13:09:17;;;;;;;2.35;2.10;;;;;;;;;;5061735;28;20229;-80
2022/08/24 13:11:46;;;;;;;4.35;2.22;;;;;;;;;;5073923;28;20213;-78
2022/08/24 13:14:19;;;;;;;2.90;1.92;;;;;;;;;;5073243;28;20206;-80
2022/08/24 13:17:06;;;;;;;2.75;2.00;;;;;;;;;;5073725;28;20198;-79
2022/08/24 13:19:38;;;;;;;4.15;2.13;;;;;;;;;;5064206;28;20222;-80
2022/08/24 13:22:25;;;;;;;7.65;2.50;;;;;;;;;;5073842;28;20194;-80
2022/08/24 13:24:59;;;;;;;3.45;2.00;;;;;;;;;;5072184;28;20245;-78
2022/08/24 13:27:48;;;;;;;2.70;2.03;;;;;;;;;;5055099;28;20261;-81
2022/08/24 13:30:21;;;;;;;2.88;2.10;;;;;;;;;;5073160;28;20230;-80
2022/08/24 13:32:56;;;;;;;2.88;2.35;;;;;;;;;;5073795;28;20203;-80
2022/08/24 13:35:35;;;;;;;3.42;2.00;;;;;;;;;;5074564;28;20201;-80
2022/08/24 13:38:22;;;;;;;5.30;2.40;;;;;;;;;;5070743;28;20869;-79
2022/08/24 13:40:54;;;;;;;7.47;2.10;;;;;;;;;;5053412;28;20238;-78
2022/08/24 13:43:27;;;;;;;2.83;2.25;;;;;;;;;;5053682;28;20184;-79
2022/08/24 13:45:57;;;;;;;8.23;2.30;;;;;;;;;;5060317;28;20191;-79
2022/08/24 13:48:38;;;;;;;4.38;2.25;;;;;;;;;;5077599;28;20203;-79
2022/08/24 13:51:19;;;;;;;3.25;2.10;;;;;;;;;;5079378;28;20651;-79
2022/08/24 13:54:05;;;;;;;8.38;2.30;;;;;;;;;;5075290;28;20634;-78
2022/08/24 13:57:01;;;;;;;4.53;2.10;;;;;;;;;;5077301;28;20193;-79
2022/08/24 13:59:48;;;;;;;3.70;2.30;;;;;;;;;;5076870;28;20634;-80
2022/08/24 14:02:26;;;;;;;4.82;2.20;;;;;;;;;;5077477;28;20183;-81
2022/08/24 14:04:58;;;;;;;5.78;2.33;;;;;;;;;;5070668;28;20210;-81
2022/08/24 14:07:30;;;;;;;3.30;2.08;;;;;;;;;;5059960;28;20199;-81
2022/08/24 14:10:03;;;;;;;4.40;1.90;;;;;;;;;;5076824;28;20215;-80
2022/08/24 14:12:39;;;;;;;4.03;2.20;;;;;;;;;;5077108;28;20194;-81
2022/08/24 14:15:11;;;;;;;4.00;2.30;;;;;;;;;;5077018;28;20659;-80
2022/08/24 14:17:52;;;;;;;2.78;2.15;;;;;;;;;;5076560;28;20251;-79
2022/08/24 14:20:31;;;;;;;4.57;2.15;;;;;;;;;;5075998;28;20320;-79
2022/08/24 14:23:07;;;;;;;3.50;1.98;;;;;;;;;;5077249;28;20249;-81
2022/08/24 14:25:37;;;;;;;4.35;2.10;;;;;;;;;;5076375;28;20186;-78
2022/08/24 14:28:24;;;;;;;2.33;2.13;;;;;;;;;;5076508;28;20210;-80
2022/08/24 14:31:07;;;;;;;3.47;2.05;;;;;;;;;;5057343;28;20276;-80
2022/08/24 14:33:37;;;;;;;3.47;2.30;;;;;;;;;;5059702;28;20246;-79
2022/08/24 14:36:15;;;;;;;4.13;2.10;;;;;;;;;;5077312;28;20207;-80
2022/08/24 14:38:54;;;;;;;3.35;1.95;;;;;;;;;;5077187;28;20186;-80
2022/08/24 14:41:28;;;;;;;1.95;1.80;;;;;;;;;;5077147;28;20210;-81
2022/08/24 14:44:05;;;;;;;5.20;1.90;;;;;;;;;;5076550;28;20198;-82
2022/08/24 14:46:38;;;;;;;4.00;2.10;;;;;;;;;;5076940;28;20198;-82
2022/08/24 14:49:13;;;;;;;3.15;2.33;;;;;;;;;;5076543;28;20486;-79
2022/08/24 14:51:50;;;;;;;3.58;2.08;;;;;;;;;;5076957;28;20191;-81
2022/08/24 14:54:25;;;;;;;6.53;2.30;;;;;;;;;;5075597;28;20255;-81
2022/08/24 14:57:00;;;;;;;2.33;2.10;;;;;;;;;;5076308;28;20632;-80
2022/08/24 14:59:37;;;;;;;3.45;2.10;;;;;;;;;;5056941;28;20226;-81
2022/08/24 15:02:33;;;;;;;4.90;2.42;;;;;;;;;;5056955;28;20225;-81
2022/08/24 15:05:06;;;;;;;3.33;2.28;;;;;;;;;;5056932;28;20249;-81
2022/08/24 15:07:36;;;;;;;2.95;2.05;;;;;;;;;;5057617;28;20195;-80
2022/08/24 15:10:13;;;;;;;2.17;1.98;;;;;;;;;;5071851;28;20222;-81
2022/08/24 15:12:45;;;;;;;5.05;2.28;;;;;;;;;;5077212;28;20190;-80
2022/08/24 15:15:17;;;;;;;6.45;2.60;;;;;;;;;;5077041;28;20205;-81
2022/08/24 15:17:53;;;;;;;6.43;2.30;;;;;;;;;;5076288;28;20191;-79
2022/08/24 15:20:30;;;;;;;5.97;2.42;;;;;;;;;;5076578;28;20343;-79
2022/08/24 15:23:02;;;;;;;4.65;2.40;;;;;;;;;;5076625;28;20198;-80
2022/08/24 15:25:35;;;;;;;4.30;2.10;;;;;;;;;;5076827;28;20191;-81
2022/08/24 15:28:10;;;;;;;5.90;2.15;;;;;;;;;;5076435;28;20194;-80
2022/08/24 15:30:39;;;;;;;4.03;2.35;;;;;;;;;;5076066;28;20233;-80